Time;durP1;ratioP1;P1;durP2;ratioP2;P2;SDS_P1;SDS_P2;PMS_P1;PMS_P2;Temp;Humidity;BMP_temperature;BMP_pressure;BME280_temperature;BME280_humidity;BME280_pressure;Samples;Min_cycle;Max_cycle;Signal;HPM_P1;HPM_P2
2021/06/08 00:01:28;;;;;;;8.05;5.28;;;20.10;79.70;;;;;;4972710;28;20050;-67
2021/06/08 00:03:54;;;;;;;6.88;4.90;;;20.10;79.70;;;;;;4972497;28;20045;-67
2021/06/08 00:06:20;;;;;;;8.32;4.80;;;20.10;79.80;;;;;;4976433;28;20559;-67
2021/06/08 00:08:45;;;;;;;7.18;4.90;;;20.10;80.00;;;;;;4963603;28;20107;-67
2021/06/08 00:11:11;;;;;;;8.38;5.63;;;20.10;79.80;;;;;;4958107;28;20074;-67
2021/06/08 00:13:36;;;;;;;7.25;5.13;;;20.10;79.80;;;;;;4971707;28;20027;-67
2021/06/08 00:16:02;;;;;;;6.93;4.82;;;20.10;79.80;;;;;;4975056;28;20034;-66
2021/06/08 00:18:28;;;;;;;8.15;4.82;;;20.10;79.80;;;;;;4966787;28;20170;-67
2021/06/08 00:20:54;;;;;;;7.32;5.05;;;20.10;79.80;;;;;;4966352;28;20510;-67
2021/06/08 00:23:19;;;;;;;7.43;5.03;;;20.10;79.90;;;;;;4963682;28;20077;-66
2021/06/08 00:25:45;;;;;;;8.15;5.10;;;20.10;79.90;;;;;;4956864;29;20032;-67
2021/06/08 00:28:11;;;;;;;6.53;4.63;;;20.10;80.40;;;;;;4971039;28;20027;-67
2021/06/08 00:30:37;;;;;;;9.77;5.18;;;20.10;79.80;;;;;;4975826;28;20484;-67
2021/06/08 00:33:03;;;;;;;6.47;4.20;;;20.10;79.80;;;;;;4964588;28;20459;-67
2021/06/08 00:35:30;;;;;;;8.00;4.80;;;20.10;79.80;;;;;;4956642;28;20126;-67
2021/06/08 00:37:56;;;;;;;7.20;4.85;;;20.10;79.70;;;;;;4969362;28;20022;-67
2021/06/08 00:40:21;;;;;;;7.55;4.53;;;20.00;79.70;;;;;;4975894;28;20587;-67
2021/06/08 00:42:47;;;;;;;7.88;4.70;;;20.00;79.70;;;;;;4974313;28;20027;-66
2021/06/08 00:45:14;;;;;;;7.28;4.78;;;20.00;79.70;;;;;;4975707;28;20554;-66
2021/06/08 00:47:40;;;;;;;6.53;4.40;;;20.00;79.80;;;;;;4964760;28;20043;-67
2021/06/08 00:50:06;;;;;;;6.75;4.60;;;20.00;79.80;;;;;;4956130;28;20031;-67
2021/06/08 00:52:32;;;;;;;6.70;4.50;;;19.90;79.70;;;;;;4975191;28;20042;-66
2021/06/08 00:54:57;;;;;;;7.05;4.85;;;20.00;80.00;;;;;;4972939;28;20416;-66
2021/06/08 00:57:23;;;;;;;6.95;4.60;;;20.00;79.70;;;;;;4956093;28;20469;-66
2021/06/08 00:59:49;;;;;;;7.97;5.03;;;20.00;79.60;;;;;;4957331;28;20039;-66
2021/06/08 01:02:15;;;;;;;6.50;4.50;;;20.00;79.70;;;;;;4958176;28;20031;-67
2021/06/08 01:04:41;;;;;;;7.35;4.50;;;20.00;79.50;;;;;;4955743;28;20046;-66
2021/06/08 01:07:07;;;;;;;6.53;4.78;;;20.00;79.50;;;;;;4957884;28;20027;-66
2021/06/08 01:09:32;;;;;;;8.13;4.85;;;20.00;79.60;;;;;;4973864;28;20089;-65
2021/06/08 01:11:58;;;;;;;7.57;4.38;;;20.00;79.50;;;;;;4973787;28;20062;-67
2021/06/08 01:14:23;;;;;;;6.97;4.40;;;20.00;79.40;;;;;;4957090;28;20047;-66
2021/06/08 01:16:49;;;;;;;6.85;4.50;;;20.00;79.40;;;;;;4955059;28;20051;-67
2021/06/08 01:19:16;;;;;;;6.45;4.20;;;20.00;79.70;;;;;;4955882;29;20027;-67
2021/06/08 01:21:42;;;;;;;7.93;4.13;;;20.00;79.50;;;;;;4955780;28;20035;-66
2021/06/08 01:24:09;;;;;;;6.18;4.03;;;20.00;79.50;;;;;;4955894;28;20138;-66
2021/06/08 01:26:35;;;;;;;6.63;4.43;;;20.00;80.00;;;;;;4955477;28;20468;-66
2021/06/08 01:29:03;;;;;;;7.50;4.68;;;20.00;79.40;;;;;;4956667;28;20063;-67
2021/06/08 01:31:31;;;;;;;6.28;3.90;;;19.90;79.30;;;;;;4961088;28;20509;-67
2021/06/08 01:33:57;;;;;;;5.82;4.00;;;20.00;79.50;;;;;;4971105;28;20031;-67
2021/06/08 01:36:25;;;;;;;7.07;4.00;;;20.00;79.50;;;;;;4959778;28;20445;-67
2021/06/08 01:38:52;;;;;;;6.43;3.97;;;19.90;79.40;;;;;;4954423;28;20775;-67
2021/06/08 01:41:20;;;;;;;7.57;4.22;;;19.90;79.40;;;;;;4963998;28;20055;-68
2021/06/08 01:43:46;;;;;;;6.95;3.78;;;19.90;79.40;;;;;;4960352;28;20039;-67
2021/06/08 01:46:15;;;;;;;7.15;4.00;;;19.90;79.50;;;;;;4955275;28;20065;-66
2021/06/08 01:48:41;;;;;;;7.13;4.30;;;19.90;79.50;;;;;;4964271;28;20031;-67
2021/06/08 01:51:31;;;;;;;7.05;3.83;;;19.90;79.40;;;;;;4974306;28;20373;-67
2021/06/08 01:54:12;;;;;;;5.47;3.63;;;19.90;79.50;;;;;;4964825;28;20031;-67
2021/06/08 01:56:42;;;;;;;5.72;3.60;;;19.90;79.60;;;;;;4959930;28;20035;-67
2021/06/08 01:59:41;;;;;;;6.13;3.60;;;19.90;79.50;;;;;;4964520;28;20023;-67
2021/06/08 02:02:22;;;;;;;6.10;3.67;;;19.90;79.60;;;;;;4973932;28;20099;-67
2021/06/08 02:04:58;;;;;;;5.80;3.40;;;19.90;79.50;;;;;;4974093;28;20026;-67
2021/06/08 02:07:41;;;;;;;5.55;3.33;;;19.90;79.60;;;;;;4973908;28;20524;-67
2021/06/08 02:10:29;;;;;;;6.05;3.38;;;19.90;79.50;;;;;;4959827;28;20023;-67
2021/06/08 02:13:12;;;;;;;6.68;3.83;;;19.90;79.70;;;;;;4974019;28;20034;-67
2021/06/08 02:15:42;;;;;;;6.18;3.70;;;19.90;79.80;;;;;;4974272;28;20027;-67
2021/06/08 02:18:11;;;;;;;6.22;3.60;;;19.90;79.70;;;;;;4969360;28;20077;-66
2021/06/08 02:20:41;;;;;;;5.88;3.67;;;19.90;79.80;;;;;;4966221;28;20023;-66
2021/06/08 02:23:11;;;;;;;6.85;3.47;;;19.90;79.70;;;;;;4972138;28;20037;-67
2021/06/08 02:25:37;;;;;;;6.80;3.50;;;19.90;79.80;;;;;;4973217;28;20416;-67
2021/06/08 02:28:08;;;;;;;5.97;3.65;;;19.90;79.70;;;;;;4967983;28;20019;-67
2021/06/08 02:30:36;;;;;;;6.32;3.10;;;19.90;79.70;;;;;;4971982;28;20018;-67
2021/06/08 02:33:02;;;;;;;5.13;3.45;;;19.90;79.60;;;;;;4971789;28;20086;-66
2021/06/08 02:35:28;;;;;;;6.13;3.47;;;19.90;79.70;;;;;;4972581;28;20026;-66
2021/06/08 02:37:55;;;;;;;6.05;3.17;;;19.90;79.60;;;;;;4959075;28;20039;-67
2021/06/08 02:40:21;;;;;;;6.63;3.47;;;19.90;79.70;;;;;;4956676;28;20041;-67
2021/06/08 02:42:48;;;;;;;5.35;3.33;;;19.90;79.70;;;;;;4956868;28;20023;-66
2021/06/08 02:45:14;;;;;;;5.32;3.35;;;19.90;79.60;;;;;;4955398;28;20400;-67
2021/06/08 02:47:42;;;;;;;5.20;3.40;;;19.90;79.70;;;;;;4952948;28;20038;-66
2021/06/08 02:50:08;;;;;;;5.20;3.05;;;19.90;79.60;;;;;;4954666;28;20030;-67
2021/06/08 02:52:35;;;;;;;5.57;3.10;;;19.90;79.60;;;;;;4953642;28;20050;-67
2021/06/08 02:55:03;;;;;;;5.15;2.92;;;19.90;79.80;;;;;;4955966;28;20050;-66
2021/06/08 02:57:29;;;;;;;5.53;3.00;;;19.90;79.50;;;;;;4972695;28;20061;-67
2021/06/08 03:00:01;;;;;;;5.47;2.90;;;19.80;79.60;;;;;;4953958;28;20033;-67
2021/06/08 03:02:28;;;;;;;5.03;3.00;;;19.90;79.60;;;;;;4972823;28;20086;-64
2021/06/08 03:05:09;;;;;;;4.70;2.97;;;19.80;79.60;;;;;;4972867;28;20508;-67
2021/06/08 03:07:37;;;;;;;5.35;3.03;;;19.80;79.60;;;;;;4965524;28;20089;-67
2021/06/08 03:10:23;;;;;;;6.18;2.90;;;19.90;79.70;;;;;;4970820;28;20519;-67
2021/06/08 03:12:52;;;;;;;4.78;2.90;;;19.80;79.60;;;;;;4972988;28;20105;-67
2021/06/08 03:15:20;;;;;;;6.55;2.92;;;19.80;79.60;;;;;;4971864;28;20053;-67
2021/06/08 03:17:46;;;;;;;5.03;3.00;;;19.80;79.60;;;;;;5016980;23;20041;-69
2021/06/08 03:20:25;;;;;;;5.35;2.63;;;19.80;79.70;;;;;;5009995;28;20021;-69
2021/06/08 03:22:56;;;;;;;5.13;2.90;;;19.80;79.60;;;;;;5002715;28;20033;-69
2021/06/08 03:25:23;;;;;;;4.68;2.75;;;19.80;79.60;;;;;;5008862;28;20034;-70
2021/06/08 03:27:50;;;;;;;5.75;2.95;;;19.80;79.60;;;;;;5010434;28;20393;-71
2021/06/08 03:30:16;;;;;;;4.38;2.60;;;19.80;79.60;;;;;;5011908;28;20029;-69
2021/06/08 03:32:42;;;;;;;4.68;2.65;;;19.80;79.60;;;;;;5010475;28;20025;-70
2021/06/08 03:35:10;;;;;;;5.75;3.10;;;19.80;79.60;;;;;;5008945;28;20025;-69
2021/06/08 03:37:36;;;;;;;6.22;3.13;;;19.80;79.70;;;;;;5010595;28;20030;-70
2021/06/08 03:40:04;;;;;;;4.95;3.10;;;19.80;79.70;;;;;;5011634;28;20184;-69
2021/06/08 03:42:30;;;;;;;5.20;3.20;;;19.80;79.60;;;;;;5009560;28;20134;-69
2021/06/08 03:44:55;;;;;;;5.55;2.83;;;19.80;79.60;;;;;;5010054;28;20636;-69
2021/06/08 03:47:21;;;;;;;4.60;2.83;;;19.80;79.70;;;;;;5011815;28;20030;-69
2021/06/08 03:49:48;;;;;;;5.40;2.90;;;19.80;79.60;;;;;;5011764;28;20022;-68
2021/06/08 03:52:13;;;;;;;5.00;3.00;;;19.90;79.60;;;;;;5010512;28;20032;-69
2021/06/08 03:54:40;;;;;;;5.03;2.80;;;19.80;79.50;;;;;;5010011;28;20034;-69
2021/06/08 03:57:06;;;;;;;5.90;2.70;;;19.80;79.80;;;;;;5011734;28;20049;-69
2021/06/08 03:59:34;;;;;;;5.50;2.85;;;19.80;79.60;;;;;;5009789;28;20034;-68
2021/06/08 04:02:01;;;;;;;6.28;2.80;;;19.80;79.60;;;;;;5010030;28;20029;-68
2021/06/08 04:04:29;;;;;;;4.43;2.72;;;19.80;79.60;;;;;;5009604;28;20462;-70
2021/06/08 04:06:55;;;;;;;5.05;3.20;;;19.80;79.60;;;;;;5010372;28;20028;-69
2021/06/08 04:09:20;;;;;;;5.15;3.17;;;19.80;79.60;;;;;;5010149;28;20113;-68
2021/06/08 04:11:51;;;;;;;4.68;2.72;;;19.80;79.60;;;;;;5011183;28;20060;-69
2021/06/08 04:14:18;;;;;;;4.30;2.67;;;19.80;79.60;;;;;;5010824;28;20049;-69
2021/06/08 04:16:45;;;;;;;4.57;2.67;;;19.80;79.80;;;;;;5025933;28;20033;-69
2021/06/08 04:19:11;;;;;;;4.43;2.47;;;19.80;79.70;;;;;;5013305;28;20121;-69
2021/06/08 04:21:38;;;;;;;4.18;2.60;;;19.80;79.70;;;;;;5028718;28;20056;-71
2021/06/08 04:24:06;;;;;;;4.60;2.90;;;19.80;79.60;;;;;;5009590;28;20801;-68
2021/06/08 04:26:32;;;;;;;9.98;4.47;;;19.90;79.80;;;;;;5003222;28;20025;-70
2021/06/08 04:28:59;;;;;;;10.73;4.40;;;19.90;79.70;;;;;;5003114;28;20471;-69
2021/06/08 04:31:25;;;;;;;7.60;4.18;;;19.90;79.80;;;;;;5004724;28;20546;-68
2021/06/08 04:33:51;;;;;;;9.02;3.72;;;19.90;80.00;;;;;;5013318;28;20104;-69
2021/06/08 04:36:18;;;;;;;8.13;3.75;;;19.90;80.00;;;;;;5015552;28;20033;-69
2021/06/08 04:38:44;;;;;;;6.22;2.95;;;19.90;80.10;;;;;;5004780;28;20034;-71
2021/06/08 04:41:11;;;;;;;6.07;3.22;;;19.90;80.20;;;;;;5002509;28;20034;-69
2021/06/08 04:43:37;;;;;;;5.95;2.90;;;19.90;80.20;;;;;;5003569;28;20030;-68
2021/06/08 04:46:07;;;;;;;6.60;2.88;;;19.90;80.20;;;;;;5005523;28;20495;-67
2021/06/08 04:48:33;;;;;;;5.03;2.60;;;19.90;80.20;;;;;;5004672;28;20022;-69
2021/06/08 04:50:59;;;;;;;8.35;3.00;;;19.90;80.30;;;;;;5003045;28;20026;-74
2021/06/08 04:53:25;;;;;;;8.82;3.17;;;19.90;80.50;;;;;;5005645;28;20040;-71
2021/06/08 04:55:53;;;;;;;6.55;3.17;;;19.90;80.40;;;;;;5006698;28;20025;-72
2021/06/08 04:58:19;;;;;;;8.10;3.28;;;20.00;80.40;;;;;;5007199;28;20026;-68
2021/06/08 05:00:55;;;;;;;5.38;3.17;;;19.90;80.20;;;;;;5007321;28;20026;-69
2021/06/08 05:03:25;;;;;;;6.00;3.08;;;20.00;80.20;;;;;;5007102;28;20547;-70
2021/06/08 05:05:54;;;;;;;6.05;3.08;;;19.90;80.00;;;;;;5008639;28;20025;-69
2021/06/08 05:08:34;;;;;;;6.35;3.17;;;20.00;80.00;;;;;;5007857;28;20491;-70
2021/06/08 05:11:07;;;;;;;6.43;2.83;;;20.00;80.10;;;;;;5007497;28;20450;-67
2021/06/08 05:13:34;;;;;;;6.13;3.00;;;20.00;79.90;;;;;;5007708;28;20029;-69
2021/06/08 05:16:00;;;;;;;11.40;3.33;;;20.10;80.00;;;;;;5007529;28;20037;-68
2021/06/08 05:18:27;;;;;;;11.85;3.35;;;20.10;79.60;;;;;;5007267;28;20204;-68
2021/06/08 05:20:54;;;;;;;15.27;3.25;;;20.20;79.50;;;;;;5006045;28;20126;-71
2021/06/08 05:23:20;;;;;;;16.15;3.60;;;20.20;79.90;;;;;;4991230;28;20034;-68
2021/06/08 05:25:50;;;;;;;12.10;3.33;;;20.20;80.30;;;;;;5007589;28;20030;-71
2021/06/08 05:28:16;;;;;;;11.55;3.40;;;20.10;80.10;;;;;;5006254;28;20030;-68
2021/06/08 05:30:43;;;;;;;12.05;3.38;;;20.20;80.00;;;;;;5004826;28;20459;-68
2021/06/08 05:33:18;;;;;;;11.27;3.13;;;20.10;80.10;;;;;;5005129;28;20801;-68
2021/06/08 05:35:45;;;;;;;9.50;3.30;;;20.20;80.20;;;;;;5006120;28;20029;-68
2021/06/08 05:38:10;;;;;;;10.70;3.03;;;20.20;80.10;;;;;;5006269;28;20034;-68
2021/06/08 05:40:38;;;;;;;7.88;3.30;;;20.20;80.00;;;;;;5007177;28;20406;-69
2021/06/08 05:43:04;;;;;;;9.55;3.58;;;20.20;79.90;;;;;;5005599;28;20030;-68
2021/06/08 05:45:31;;;;;;;9.57;2.97;;;20.10;80.00;;;;;;5006992;28;20525;-70
2021/06/08 05:47:57;;;;;;;8.77;3.45;;;20.20;80.10;;;;;;5003206;28;20034;-70
2021/06/08 05:50:22;;;;;;;7.18;3.00;;;20.20;79.90;;;;;;5006763;28;20030;-69
2021/06/08 05:52:53;;;;;;;4.78;2.40;;;20.20;79.80;;;;;;5005481;28;20390;-68
2021/06/08 05:55:23;;;;;;;6.05;2.85;;;20.20;79.90;;;;;;5006199;28;20038;-68
2021/06/08 05:57:50;;;;;;;5.10;2.60;;;20.20;79.60;;;;;;5006008;28;20044;-71
2021/06/08 06:00:16;;;;;;;7.07;2.95;;;20.20;79.80;;;;;;5006137;28;20030;-68
2021/06/08 06:02:43;;;;;;;6.10;3.28;;;20.20;80.00;;;;;;5006828;28;20038;-69
2021/06/08 06:05:10;;;;;;;9.00;2.83;;;20.20;80.00;;;;;;5006127;28;20121;-70
2021/06/08 06:07:39;;;;;;;7.07;2.78;;;20.20;80.00;;;;;;5007124;28;20503;-70
2021/06/08 06:10:06;;;;;;;7.65;2.60;;;20.20;80.00;;;;;;5006009;28;20030;-69
2021/06/08 06:12:33;;;;;;;6.85;2.97;;;20.20;79.90;;;;;;5007116;28;20141;-70
2021/06/08 06:15:04;;;;;;;5.40;2.67;;;20.20;79.80;;;;;;5022103;28;20120;-73
2021/06/08 06:17:41;;;;;;;5.93;2.63;;;20.20;79.70;;;;;;5007093;28;20040;-73
2021/06/08 06:20:10;;;;;;;8.68;2.90;;;20.20;79.60;;;;;;5007156;28;20742;-68
2021/06/08 06:22:36;;;;;;;5.30;2.90;;;20.20;79.80;;;;;;5006788;28;20092;-70
2021/06/08 06:25:05;;;;;;;7.80;3.13;;;20.20;79.50;;;;;;5006029;28;20041;-73
2021/06/08 06:27:34;;;;;;;7.05;3.03;;;20.30;79.30;;;;;;5005035;28;20088;-70
2021/06/08 06:30:00;;;;;;;7.28;3.22;;;20.30;79.30;;;;;;5030286;28;20029;-70
2021/06/08 06:32:25;;;;;;;6.72;3.40;;;20.30;79.20;;;;;;5004786;28;20256;-70
2021/06/08 06:34:51;;;;;;;6.63;3.58;;;20.30;79.10;;;;;;5006606;28;20026;-69
2021/06/08 06:37:21;;;;;;;6.97;2.92;;;20.30;79.10;;;;;;5005020;28;20108;-72
2021/06/08 06:39:46;;;;;;;6.88;3.22;;;20.30;78.70;;;;;;5004150;28;20033;-71
2021/06/08 06:42:14;;;;;;;7.28;3.47;;;20.30;78.80;;;;;;5005817;28;20495;-72
2021/06/08 06:44:41;;;;;;;7.18;3.92;;;20.30;78.90;;;;;;5006695;28;20121;-70
2021/06/08 06:47:07;;;;;;;7.18;3.42;;;20.30;78.90;;;;;;5005920;28;20037;-72
2021/06/08 06:49:34;;;;;;;6.80;3.38;;;20.30;78.50;;;;;;5006460;28;20022;-70
2021/06/08 06:52:00;;;;;;;9.05;3.60;;;20.30;78.80;;;;;;5005009;28;20041;-70
2021/06/08 06:54:28;;;;;;;5.93;3.08;;;20.30;78.80;;;;;;5006135;28;20084;-70
2021/06/08 06:56:56;;;;;;;20.05;4.10;;;20.30;78.90;;;;;;5006849;28;20471;-71
2021/06/08 06:59:22;;;;;;;9.13;3.90;;;20.30;78.90;;;;;;5003834;28;20121;-71
2021/06/08 07:01:48;;;;;;;7.88;4.00;;;20.30;78.70;;;;;;5005046;28;20057;-71
2021/06/08 07:04:16;;;;;;;7.32;3.90;;;20.30;79.00;;;;;;5004882;28;20033;-71
2021/06/08 07:06:42;;;;;;;10.23;3.97;;;20.30;78.90;;;;;;5004348;28;20037;-69
2021/06/08 07:09:08;;;;;;;6.93;3.85;;;20.20;78.80;;;;;;5005543;28;20038;-70
2021/06/08 07:11:34;;;;;;;7.97;4.03;;;20.30;78.90;;;;;;5005790;28;20025;-70
2021/06/08 07:14:01;;;;;;;6.80;3.42;;;20.30;78.90;;;;;;5005277;28;20030;-70
2021/06/08 07:16:27;;;;;;;6.93;3.50;;;20.20;79.30;;;;;;5005619;28;20733;-69
2021/06/08 07:18:53;;;;;;;6.40;3.60;;;20.30;78.60;;;;;;5006065;28;20041;-71
2021/06/08 07:21:21;;;;;;;8.88;4.47;;;20.30;78.80;;;;;;5002987;28;20734;-70
2021/06/08 07:23:49;;;;;;;7.53;3.60;;;20.30;78.50;;;;;;5001701;28;20034;-71
2021/06/08 07:26:17;;;;;;;7.28;3.58;;;20.30;78.60;;;;;;5003461;28;20025;-71
2021/06/08 07:28:44;;;;;;;8.18;3.70;;;20.30;78.70;;;;;;5005435;28;20046;-69
2021/06/08 07:31:18;;;;;;;8.02;3.80;;;20.30;78.70;;;;;;5004354;28;20040;-70
2021/06/08 07:33:53;;;;;;;8.05;4.05;;;20.30;78.30;;;;;;5005111;28;20046;-69
2021/06/08 07:36:37;;;;;;;8.95;3.97;;;20.40;78.20;;;;;;5005838;28;20030;-70
2021/06/08 07:39:22;;;;;;;6.88;3.65;;;20.40;78.30;;;;;;5005544;28;20061;-71
2021/06/08 07:42:02;;;;;;;9.02;4.00;;;20.40;78.20;;;;;;5004342;28;20403;-69
2021/06/08 07:44:31;;;;;;;7.18;4.05;;;20.40;78.10;;;;;;5005482;28;20412;-69
2021/06/08 07:47:01;;;;;;;7.60;4.20;;;20.40;77.90;;;;;;5004033;28;20034;-69
2021/06/08 07:49:28;;;;;;;6.82;4.47;;;20.40;77.60;;;;;;5006106;28;20384;-70
2021/06/08 07:51:54;;;;;;;6.97;4.40;;;20.40;77.60;;;;;;5003991;28;20096;-73
2021/06/08 07:54:23;;;;;;;8.13;4.97;;;20.40;77.40;;;;;;5003884;28;20967;-68
2021/06/08 07:56:50;;;;;;;7.13;4.20;;;20.50;77.50;;;;;;5005272;28;20066;-69
2021/06/08 07:59:16;;;;;;;7.40;4.47;;;20.50;77.40;;;;;;5004334;28;20144;-73
2021/06/08 08:01:42;;;;;;;7.15;4.50;;;20.50;77.00;;;;;;5005545;28;20407;-70
2021/06/08 08:04:09;;;;;;;7.90;4.53;;;20.50;77.10;;;;;;5003957;28;20032;-72
2021/06/08 08:06:36;;;;;;;8.70;4.60;;;20.50;76.90;;;;;;4999466;28;20400;-71
2021/06/08 08:09:03;;;;;;;7.68;4.70;;;20.50;77.10;;;;;;5002989;28;20057;-71
2021/06/08 08:11:31;;;;;;;8.75;4.70;;;20.60;77.10;;;;;;5005695;28;20299;-71
2021/06/08 08:13:58;;;;;;;7.85;4.75;;;20.60;77.10;;;;;;5003467;28;20022;-70
2021/06/08 08:16:24;;;;;;;7.95;5.05;;;20.60;77.20;;;;;;5003801;28;20372;-72
2021/06/08 08:18:50;;;;;;;9.93;4.93;;;20.50;77.00;;;;;;5004997;28;20399;-70
2021/06/08 08:21:18;;;;;;;7.72;4.53;;;20.60;77.10;;;;;;5002393;28;20026;-70
2021/06/08 08:23:44;;;;;;;7.93;5.22;;;20.60;77.40;;;;;;5002649;28;20018;-71
2021/06/08 08:26:11;;;;;;;7.82;5.00;;;20.50;77.10;;;;;;5007059;28;20111;-67
2021/06/08 08:28:40;;;;;;;10.90;4.90;;;20.50;77.20;;;;;;5007977;28;20061;-70
2021/06/08 08:31:09;;;;;;;8.38;5.03;;;20.60;77.10;;;;;;5008726;28;20025;-69
2021/06/08 08:33:36;;;;;;;11.32;5.68;;;20.60;76.80;;;;;;5008797;28;20034;-69
2021/06/08 08:36:02;;;;;;;7.70;4.82;;;20.60;76.90;;;;;;5008904;28;20254;-69
2021/06/08 08:38:29;;;;;;;8.25;5.72;;;20.60;76.80;;;;;;5007708;28;20495;-71
2021/06/08 08:41:00;;;;;;;7.18;5.13;;;20.60;76.50;;;;;;5008951;28;20034;-69
2021/06/08 08:43:26;;;;;;;8.65;5.15;;;20.60;76.70;;;;;;5006830;28;20307;-70
2021/06/08 08:45:52;;;;;;;8.48;5.40;;;20.60;76.60;;;;;;5008789;28;20484;-68
2021/06/08 08:48:19;;;;;;;8.95;5.78;;;20.60;76.30;;;;;;5008042;28;20026;-68
2021/06/08 08:50:45;;;;;;;8.98;5.63;;;20.60;76.40;;;;;;5008336;28;20113;-71
2021/06/08 08:53:11;;;;;;;8.25;5.63;;;20.70;76.50;;;;;;5008047;28;20460;-70
2021/06/08 08:55:37;;;;;;;9.20;5.72;;;20.60;76.30;;;;;;5008421;28;20152;-69
2021/06/08 08:58:05;;;;;;;8.05;5.50;;;20.70;76.30;;;;;;5007963;28;20030;-69
2021/06/08 09:00:33;;;;;;;8.40;5.90;;;20.70;76.00;;;;;;5007939;28;20566;-69
2021/06/08 09:03:01;;;;;;;8.68;5.20;;;20.80;75.90;;;;;;5008059;28;20031;-69
2021/06/08 09:05:28;;;;;;;9.77;6.22;;;20.80;75.90;;;;;;5008011;28;20049;-70
2021/06/08 09:07:54;;;;;;;8.18;5.30;;;20.80;75.90;;;;;;5006419;28;20176;-68
2021/06/08 09:10:21;;;;;;;7.32;4.85;;;20.80;75.90;;;;;;5008036;28;20534;-70
2021/06/08 09:12:47;;;;;;;8.40;5.35;;;20.80;75.90;;;;;;5006163;28;20436;-72
2021/06/08 09:15:13;;;;;;;10.80;5.35;;;20.80;75.90;;;;;;5008160;28;20041;-70
2021/06/08 09:17:40;;;;;;;8.40;5.93;;;20.80;75.90;;;;;;5007635;28;20057;-68
2021/06/08 09:20:10;;;;;;;8.40;5.82;;;20.80;76.20;;;;;;5007853;28;20029;-70
2021/06/08 09:23:08;;;;;;;8.20;5.78;;;20.70;76.20;;;;;;5007722;28;20028;-70
2021/06/08 09:25:37;;;;;;;7.93;5.70;;;20.70;76.20;;;;;;4989716;28;20045;-69
2021/06/08 09:28:24;;;;;;;9.00;5.95;;;20.70;76.10;;;;;;5007596;28;20437;-70
2021/06/08 09:31:01;;;;;;;7.85;5.55;;;20.80;76.20;;;;;;5006983;28;20284;-69
2021/06/08 09:33:30;;;;;;;8.82;6.18;;;20.70;75.90;;;;;;5005939;28;20022;-70
2021/06/08 09:36:10;;;;;;;8.52;5.78;;;20.80;75.80;;;;;;5006970;28;20032;-70
2021/06/08 09:38:47;;;;;;;9.13;5.97;;;20.70;75.80;;;;;;5006109;28;20038;-69
2021/06/08 09:41:14;;;;;;;9.13;6.15;;;20.80;75.70;;;;;;5007232;28;20487;-70
2021/06/08 09:43:56;;;;;;;8.73;6.15;;;20.80;75.60;;;;;;5005621;28;20033;-70
2021/06/08 09:46:24;;;;;;;10.40;6.57;;;20.80;76.00;;;;;;5007191;28;20029;-70
2021/06/08 09:49:05;;;;;;;8.32;5.97;;;20.70;75.80;;;;;;5007285;28;20034;-72
2021/06/08 09:51:54;;;;;;;8.85;5.93;;;20.80;76.30;;;;;;5007382;28;20022;-71
2021/06/08 09:54:43;;;;;;;10.55;6.10;;;20.80;75.80;;;;;;5004529;28;20033;-74
2021/06/08 09:57:28;;;;;;;9.40;6.38;;;20.70;75.80;;;;;;5004487;28;20021;-69
2021/06/08 09:59:56;;;;;;;11.02;7.07;;;20.70;76.30;;;;;;5005225;28;20053;-69
2021/06/08 10:02:23;;;;;;;10.20;6.75;;;20.70;76.10;;;;;;5005768;28;20403;-69
2021/06/08 10:04:49;;;;;;;8.68;6.22;;;20.70;75.90;;;;;;5002751;28;20073;-71
2021/06/08 10:07:31;;;;;;;9.50;6.40;;;20.70;76.60;;;;;;5006473;28;20522;-70
2021/06/08 10:10:07;;;;;;;9.13;6.28;;;20.70;76.50;;;;;;5006753;28;20029;-71
2021/06/08 10:12:34;;;;;;;10.40;6.70;;;20.70;76.60;;;;;;5005421;28;20514;-70
2021/06/08 10:15:11;;;;;;;11.77;6.60;;;20.80;76.00;;;;;;5006352;28;20041;-68
2021/06/08 10:17:39;;;;;;;12.38;7.05;;;20.80;76.00;;;;;;5004889;28;20041;-70
2021/06/08 10:20:19;;;;;;;12.25;7.93;;;20.80;76.00;;;;;;5004352;28;20034;-71
2021/06/08 10:22:45;;;;;;;10.73;6.53;;;20.90;75.70;;;;;;5005554;28;20026;-69
2021/06/08 10:25:11;;;;;;;10.23;6.30;;;20.90;75.30;;;;;;5005684;28;20212;-69
2021/06/08 10:27:38;;;;;;;9.35;6.05;;;20.90;74.90;;;;;;5005719;28;20026;-70
2021/06/08 10:30:04;;;;;;;9.20;5.97;;;21.00;75.00;;;;;;5004930;28;20083;-68
2021/06/08 10:32:30;;;;;;;8.65;6.40;;;21.00;74.80;;;;;;5005130;28;20026;-69
2021/06/08 10:34:56;;;;;;;9.77;6.40;;;21.00;74.90;;;;;;5007367;28;20722;-68
2021/06/08 10:37:22;;;;;;;8.15;5.88;;;21.00;75.00;;;;;;5006555;28;20026;-69
2021/06/08 10:39:48;;;;;;;10.68;6.47;;;21.00;74.80;;;;;;5038539;28;20103;-68
2021/06/08 10:42:15;;;;;;;9.73;6.80;;;21.00;74.90;;;;;;5005270;28;20068;-68
2021/06/08 10:44:41;;;;;;;9.50;6.40;;;21.00;74.80;;;;;;4998293;28;20019;-71
2021/06/08 10:47:32;;;;;;;9.02;6.07;;;21.10;74.50;;;;;;5008445;28;20072;-71
2021/06/08 10:49:58;;;;;;;9.52;6.22;;;21.10;74.40;;;;;;5000014;28;20574;-70
2021/06/08 10:52:25;;;;;;;9.10;5.97;;;21.30;73.70;;;;;;5005449;28;20513;-69
2021/06/08 10:54:54;;;;;;;10.32;6.68;;;21.30;73.80;;;;;;5005119;28;20026;-70
2021/06/08 10:57:19;;;;;;;9.05;6.15;;;21.30;73.90;;;;;;5006713;28;20029;-71
2021/06/08 10:59:50;;;;;;;9.27;6.32;;;21.30;73.80;;;;;;5006951;28;20014;-69
2021/06/08 11:02:34;;;;;;;9.40;6.60;;;21.30;73.80;;;;;;5006632;28;20022;-70
2021/06/08 11:05:01;;;;;;;9.10;6.07;;;21.40;73.40;;;;;;5035389;28;20324;-70
2021/06/08 11:07:56;;;;;;;8.85;6.38;;;21.40;73.40;;;;;;5027301;28;20021;-70
2021/06/08 11:10:28;;;;;;;8.45;6.07;;;21.40;73.70;;;;;;4994317;28;20520;-69
2021/06/08 11:13:17;;;;;;;10.23;7.05;;;21.30;73.60;;;;;;5004051;28;20372;-70
2021/06/08 11:15:46;;;;;;;9.93;6.10;;;21.50;73.20;;;;;;4995629;28;20186;-69
2021/06/08 11:18:18;;;;;;;10.57;6.82;;;21.50;72.40;;;;;;5004461;28;20765;-71
2021/06/08 11:20:45;;;;;;;9.68;6.57;;;21.60;72.30;;;;;;5006476;28;20033;-73
2021/06/08 11:23:32;;;;;;;10.55;6.85;;;21.50;72.90;;;;;;5005803;28;20049;-70
2021/06/08 11:25:57;;;;;;;9.10;6.13;;;21.50;72.60;;;;;;5005861;28;20073;-69
2021/06/08 11:28:46;;;;;;;10.13;6.80;;;21.40;73.00;;;;;;5003906;28;20022;-71
2021/06/08 11:31:12;;;;;;;10.20;6.93;;;21.40;73.00;;;;;;5005801;28;20080;-70
2021/06/08 11:33:44;;;;;;;9.85;6.55;;;21.50;72.90;;;;;;5004480;28;20026;-69
2021/06/08 11:36:18;;;;;;;9.40;6.20;;;21.50;73.10;;;;;;5005670;28;20046;-69
2021/06/08 11:38:48;;;;;;;9.93;6.88;;;21.40;73.10;;;;;;5006163;28;20030;-69
2021/06/08 11:41:14;;;;;;;8.90;6.13;;;21.40;73.30;;;;;;5005927;28;20033;-69
2021/06/08 11:43:47;;;;;;;10.85;6.97;;;21.40;73.20;;;;;;5005323;28;20304;-71
2021/06/08 11:46:28;;;;;;;8.88;6.55;;;21.40;73.30;;;;;;5004423;28;20052;-69
2021/06/08 11:49:28;;;;;;;8.98;6.47;;;21.40;73.00;;;;;;5005796;28;20022;-68
2021/06/08 11:52:11;;;;;;;10.27;6.40;;;21.40;73.20;;;;;;4950376;28;20034;-69
2021/06/08 11:54:40;;;;;;;12.80;6.85;;;21.40;73.10;;;;;;5002717;28;20110;-72
2021/06/08 11:57:14;;;;;;;9.10;6.38;;;21.50;73.10;;;;;;5005413;28;20037;-70
2021/06/08 11:59:46;;;;;;;9.35;6.47;;;21.60;72.60;;;;;;5006807;28;20030;-71
2021/06/08 12:02:31;;;;;;;9.52;6.35;;;21.60;72.00;;;;;;5009637;28;20382;-70
2021/06/08 12:05:04;;;;;;;9.45;6.00;;;21.60;72.10;;;;;;5008263;28;20025;-69
2021/06/08 12:07:44;;;;;;;9.60;6.43;;;21.60;72.50;;;;;;5009536;28;20034;-69
2021/06/08 12:10:11;;;;;;;11.10;6.57;;;21.60;72.50;;;;;;5008273;28;20509;-70
2021/06/08 12:12:43;;;;;;;9.52;6.10;;;21.60;72.60;;;;;;5009365;28;20256;-69
2021/06/08 12:15:09;;;;;;;9.45;6.38;;;21.60;72.30;;;;;;5009852;28;20036;-68
2021/06/08 12:17:35;;;;;;;10.00;6.15;;;21.70;72.20;;;;;;5009220;28;20077;-71
2021/06/08 12:20:01;;;;;;;8.73;6.32;;;21.70;72.30;;;;;;5009534;28;20111;-69
2021/06/08 12:22:29;;;;;;;8.65;5.63;;;21.70;72.20;;;;;;5007772;28;20645;-69
2021/06/08 12:25:06;;;;;;;8.40;6.10;;;21.70;72.30;;;;;;5009511;28;20029;-69
2021/06/08 12:27:40;;;;;;;9.10;6.25;;;21.70;71.90;;;;;;5009135;28;20399;-71
2021/06/08 12:30:11;;;;;;;8.75;6.30;;;21.60;72.20;;;;;;5009431;28;20105;-70
2021/06/08 12:32:38;;;;;;;7.93;5.85;;;21.60;72.40;;;;;;5009427;28;20029;-69
2021/06/08 12:35:06;;;;;;;8.20;5.47;;;21.60;72.60;;;;;;5008884;28;20026;-70
2021/06/08 12:37:31;;;;;;;8.65;6.13;;;21.50;72.70;;;;;;5007820;28;20188;-69
2021/06/08 12:39:58;;;;;;;8.13;5.75;;;21.60;72.90;;;;;;5007645;28;20451;-70
2021/06/08 12:42:25;;;;;;;8.75;5.75;;;21.60;72.70;;;;;;5008653;28;20026;-70
2021/06/08 12:44:52;;;;;;;8.88;6.20;;;21.60;72.60;;;;;;5008833;28;20060;-71
2021/06/08 12:47:22;;;;;;;7.82;5.65;;;21.60;72.50;;;;;;5008952;28;20022;-70
2021/06/08 12:49:48;;;;;;;10.73;6.35;;;21.70;72.40;;;;;;5007695;28;20021;-69
2021/06/08 12:52:21;;;;;;;7.53;5.55;;;21.60;72.10;;;;;;5008047;28;20024;-70
2021/06/08 12:54:54;;;;;;;8.45;5.70;;;21.60;72.50;;;;;;5007300;28;20033;-69
2021/06/08 12:57:32;;;;;;;7.93;5.85;;;21.70;72.50;;;;;;5008696;28;20483;-70